x

New London Ledge Ct - Ledge Light Weather Station (ldlc3) Weather Station

7:50pm - Sun 28th Aug 2016 All times are EDT. -4 hours from GMT.

  • Wind
    6mph, 7mph gusts
  • Air Temp 72°f
  • Sea Pressure 1021.3mb
  • New London Ledge Ct - Ledge Light Weather Station
  • New London Ledge Ct - Ledge Light Weather Station

More Historic Weather Station data

Upgrade to MSW Pro to gain access to the past 30 days of data for over 8000 Wavebouys and Weather Stations around the globe.

Join Pro

Comparision Forecast

View Surf forecast
   
Sun 08/28 7:50pm 6 7 mph 1021.3mb 72f
7:35pm 6
mph
1021.3mb 72f
7:20pm 6 7 mph 1021.5mb 72f
7:05pm 7 8 mph 1021.7mb 73f
6:50pm 7 9 mph 1021.7mb 73f
6:35pm 6 7 mph 1021.8mb 73f
6:20pm 8 10 mph 1021.8mb 73f
6:05pm 11 13 mph 1022mb 73f
5:50pm 11 13 mph 1021.9mb 73f
5:35pm 9 11 mph 1021.9mb 73f
5:20pm 9 10 mph 1022.1mb 73f
5:05pm 11 13 mph 1022.2mb 73f
4:50pm 11 14 mph 1022.3mb 73f
4:35pm 11 13 mph 1022.4mb 74f
4:20pm 11 13 mph 1022.5mb 74f
4:05pm 11 13 mph 1023mb 73f
3:50pm 9 10 mph 1023mb 74f
3:35pm 9
mph
1023.1mb 74f
3:20pm 8 9 mph 1023.2mb 74f
3:05pm 7 8 mph 1023.4mb 74f
2:50pm 8 9 mph 1023.5mb 75f
2:35pm 7 8 mph 1023.5mb 76f
2:20pm 7 8 mph 1023.7mb 76f
2:05pm 7 8 mph 1023.9mb 77f
1:50pm 7
mph
1024mb 77f
1:35pm 6 7 mph 1024mb 77f
1:20pm 6 7 mph 1024mb 78f
1:05pm 5 6 mph 1024.1mb 77f
12:50pm 5 6 mph 1024.2mb 75f
12:35pm 3 5 mph 1024.2mb 76f
12:20pm 3 5 mph 1024.4mb 77f
12:05pm 3 5 mph 1024.6mb 78f
11:50am 2 3 mph 1024.7mb 76f
11:35am 5
mph
1024.7mb 77f
11:20am 5 6 mph 1024.9mb 76f
11:05am 3
mph
1025.1mb 77f
10:50am 3 5 mph 1025.2mb 76f
10:35am 3 5 mph 1025.2mb 76f
10:20am 6 7 mph 1025.2mb 75f
10:05am 6 7 mph 1025.2mb 75f
9:50am 3 5 mph 1025.2mb 76f
9:35am 3
mph
1025.2mb 76f
9:20am 3 5 mph 1025.1mb 74f
9:05am 3 5 mph 1025mb 74f
8:50am 3 5 mph 1024.9mb 73f
8:35am 3 6 mph 1025mb 74f
8:20am 2 3 mph 1025.1mb 76f
8:05am 2 3 mph 1025.1mb 74f
7:50am 3 5 mph 1025.1mb 73f
7:35am 2 3 mph 1025.1mb 73f
7:20am 3
mph
1025mb 71f
7:05am 6 7 mph 1025mb 71f
6:50am 5 6 mph 1025mb 70f
6:35am 5 6 mph 1024.8mb 70f
6:20am 5 6 mph 1024.8mb 69f
6:05am 6 7 mph 1024.4mb 69f
5:50am 7
mph
1024.2mb 69f
5:35am 6 7 mph 1024.1mb 69f
5:20am 5 6 mph 1024.1mb 69f
5:05am 5 6 mph 1024mb 69f
4:50am 5 6 mph 1023.8mb 70f
4:35am 6
mph
1023.7mb 70f
4:20am 6 7 mph 1023.5mb 70f
4:05am 6 7 mph 1023.5mb 70f
3:50am 6
mph
1023.5mb 70f
3:35am 6
mph
1023.5mb 70f
3:20am 6
mph
1023.4mb 70f
3:05am 6 7 mph 1023.4mb 71f
2:50am 7 8 mph 1023.4mb 71f
2:35am 7 8 mph 1023.5mb 71f
2:20am 7 8 mph 1023.5mb 71f
2:05am 8
mph
1023.6mb 71f
1:50am 7 8 mph 1023.7mb 71f
1:35am 8
mph
1023.7mb 71f
1:20am 6 7 mph 1023.7mb 71f
1:05am 8
mph
1023.7mb 71f
Sat 08/27 7:50pm 9
mph
1022.1mb 74f
7:35pm 9 10 mph 1022mb 74f
7:20pm 10 11 mph 1021.8mb 74f
7:05pm 11
mph
1021.7mb 74f
6:50pm 11 13 mph 1021.5mb 75f
6:35pm 9 10 mph 1021.6mb 75f
6:20pm 8
mph
1021.6mb 75f
6:05pm 6 7 mph 1021.5mb 76f
5:50pm 6 7 mph 1021.6mb 77f
5:35pm 3 5 mph 1021.6mb 78f
5:20pm 3 6 mph 1021.5mb 78f
5:05pm 3
mph
1021.4mb 78f
4:50pm 3 5 mph 1021.4mb 76f
4:35pm 5 6 mph 1021.3mb 77f
4:20pm 6
mph
1021.3mb 76f
4:05pm 6
mph
1021.3mb 77f
3:50pm 7 8 mph 1021.3mb 77f
3:35pm 9
mph
1021.3mb 77f
3:20pm 8 9 mph 1021.2mb 76f
3:05pm 6 8 mph 1021.2mb 79f
2:50pm 6 8 mph 1021.2mb 78f
2:35pm 7 8 mph 1021.2mb 78f
2:20pm 7 8 mph 1021.3mb 78f
2:05pm 6 7 mph 1021.3mb 78f
1:50pm 8 9 mph 1021.3mb 78f
1:35pm 9 10 mph 1021.3mb 79f
1:20pm 8 9 mph 1021.4mb 79f
1:05pm 8 9 mph 1021.4mb 78f
12:50pm 9
mph
1021.3mb 79f
12:35pm 9 10 mph 1021.3mb 78f
12:20pm 9 10 mph 1021.3mb 80f
12:05pm 8 9 mph 1021.4mb 80f
11:50am 6
mph
1021.4mb 80f
11:35am 6
mph
1021.5mb 80f
11:20am 3 5 mph 1021.5mb 79f
11:05am 5
mph
1021.6mb 77f
10:50am 5
mph
1021.6mb 79f
10:35am 3 5 mph 1021.6mb 80f
10:20am 3 5 mph 1021.8mb 80f
10:05am 6 7 mph 1021.6mb 79f
9:50am 5 7 mph 1021.6mb 80f
9:35am 3 6 mph 1021.5mb 79f
9:20am 10 11 mph 1021.3mb 78f
9:05am 11 14 mph 1021.2mb 77f
8:50am 13 15 mph 1021.1mb 76f
8:35am 14
mph
1020.9mb 76f
8:20am 14 15 mph 1020.7mb 75f
8:05am 10 15 mph 1020.8mb 75f
7:50am 13 14 mph 1020.8mb 73f
7:35am 13 14 mph 1020.6mb 73f
7:20am 11 13 mph 1020.6mb 72f
7:05am 13 14 mph 1020.2mb 72f
6:50am 11 13 mph 1020.1mb 72f
6:35am 13
mph
1019.8mb 71f
6:20am 9 10 mph 1019.6mb 71f
6:05am 13 14 mph 1019.5mb 71f
5:50am 11 13 mph 1019.2mb 71f
5:35am 10 11 mph 1019mb 71f
5:20am 10 11 mph 1018.7mb 71f
5:05am 10 13 mph 1018.5mb 72f
4:50am 13 14 mph 1018.5mb 72f
4:35am 15 16 mph 1018.3mb 73f
4:20am 14 16 mph 1018.2mb 73f
4:05am 14 16 mph 1018.1mb 73f
3:50am 13 16 mph 1018mb 73f
3:35am 15 17 mph 1018mb 74f
3:20am 14 17 mph 1018mb 74f
3:05am 16 18 mph 1017.9mb 74f
2:50am 20 23 mph 1017.6mb 75f
2:35am 16 20 mph 1017.6mb 74f
2:20am 15 17 mph 1017.6mb 74f
2:05am 15 17 mph 1017.5mb 75f
1:50am 16 17 mph 1017.5mb 75f
1:35am 16 17 mph 1017.3mb 76f
1:20am 15 17 mph 1017.2mb 76f
1:05am 15 18 mph 1017.1mb 77f
Fri 08/26 7:50pm 10
mph
1014.7mb 76f
7:35pm 9 10 mph 1014.7mb 76f
7:20pm 11 13 mph 1014.7mb 78f
7:05pm 11 13 mph 1014.4mb 77f
6:50pm 10 11 mph 1014.3mb 78f
6:35pm 8 10 mph 1014.4mb 78f
6:20pm 6 7 mph 1014.4mb 77f
6:05pm 5 6 mph 1014.2mb 76f
5:50pm 5 6 mph 1014.2mb 76f
5:35pm 7 9 mph 1014.2mb 77f
5:20pm 11
mph
1014.1mb 76f
5:05pm 8 10 mph 1014mb 75f
4:50pm 9 10 mph 1014.1mb 76f
4:35pm 9 10 mph 1014mb 76f
4:20pm 11 13 mph 1014mb 76f
4:05pm 13 15 mph 1013.9mb 76f
3:50pm 14 15 mph 1013.8mb 77f
3:35pm 13 14 mph 1013.7mb 78f
3:20pm 14 16 mph 1013.8mb 77f
3:05pm 13 14 mph 1013.9mb 77f
2:50pm 14 16 mph 1014mb 77f
2:35pm 14 15 mph 1013.7mb 77f
2:20pm 11 13 mph 1013.8mb 78f
2:05pm 10
mph
1013.8mb 79f
1:50pm 9 10 mph 1013.9mb 78f
1:35pm 9
mph
1014.2mb 78f
1:20pm 9 10 mph 1014.1mb 78f
1:05pm 10 11 mph 1014.2mb 78f
12:50pm 9 10 mph 1014.1mb 78f
12:35pm 10 11 mph 1014.1mb 77f
12:20pm 10 11 mph 1014.3mb 77f
12:05pm 10 11 mph 1014.7mb 76f
11:50am 10 11 mph 1014.5mb 76f
11:35am 8 10 mph 1014.7mb 76f
11:20am 5 6 mph 1014.7mb 76f
11:05am 6 7 mph 1014.7mb 76f
10:50am 6 7 mph 1014.7mb 75f
10:35am 8 9 mph 1014.6mb 75f
10:20am 9 10 mph 1014.7mb 75f
10:05am 11 14 mph 1014.7mb 75f
9:50am 14 15 mph 1014.9mb 75f
9:35am 15 16 mph 1014.9mb 75f
9:20am 15 17 mph 1015mb 75f
9:05am 18 20 mph 1014.8mb 75f
8:50am 16 18 mph 1014.7mb 74f
8:35am 16 17 mph 1014.8mb 74f
8:20am 18 21 mph 1014.7mb 74f
8:05am 18 21 mph - 74f
7:50am 13 14 mph - 74f
7:35am 15 16 mph - 74f
7:20am 15 16 mph - 74f
7:05am 16 17 mph - 74f
6:50am 16 17 mph - 74f
6:35am 7 8 mph - 73f
6:20am 8
mph
- 73f
6:05am 11 13 mph - 73f
5:50am 10 11 mph - 73f
5:35am 13 14 mph - 73f
5:20am 14 16 mph - 73f
5:05am 10 11 mph - 73f
4:50am 10 13 mph - 74f
4:35am 11 14 mph - 73f
4:20am 10 13 mph - 73f
4:05am 10 11 mph - 73f
3:50am 11 13 mph - 73f
3:35am 13 14 mph - 73f
3:20am 15 16 mph - 73f
3:05am 16 17 mph - 74f
2:50am 18 20 mph - 74f
2:35am 16 18 mph - 74f
2:20am 16 17 mph - 74f
2:05am 17 18 mph - 74f
1:50am 16 17 mph - 74f
1:35am 14 15 mph - 74f
1:20am 11 14 mph - 74f
1:05am 10 13 mph - 75f
Thu 08/25 7:50pm 8 9 mph - 73f
7:35pm 8 9 mph - 74f
7:20pm 10
mph
- 74f
7:05pm 9 10 mph - 74f
6:50pm 9 13 mph - 74f
6:35pm 13 15 mph - 75f
6:20pm 14 16 mph - 74f
6:05pm 15 17 mph - 75f
5:50pm 14 16 mph - 75f
5:35pm 16 17 mph - 74f
5:20pm 13 15 mph - 74f
5:05pm 13 14 mph - 74f
4:50pm 13 15 mph - 74f
4:35pm 15 17 mph - 74f
4:20pm 17 18 mph - 75f
4:05pm 14 15 mph - 74f
3:50pm 15 17 mph - 75f
3:35pm 16 17 mph - 75f
3:20pm 16 18 mph - 75f
3:05pm 14 15 mph - 75f
2:50pm 15 16 mph - 76f
2:35pm 14 17 mph - 76f
2:20pm 15 16 mph - 76f
2:05pm 11 13 mph - 75f
1:50pm 10 11 mph - 76f
1:35pm 13 14 mph - 76f
1:20pm 14 15 mph - 76f
1:05pm 15 17 mph - 76f
12:50pm 18 21 mph - 77f
12:35pm 16 21 mph - 76f
12:20pm 8 9 mph - 77f
12:05pm 8 9 mph - 76f
11:50am 8 9 mph - 76f
11:35am 8 9 mph - 76f
11:20am 8 9 mph - 76f
11:05am 10 11 mph - 75f
10:50am 9 11 mph - 74f
10:35am 9 11 mph - 74f
10:15am 10 11 mph - 74f
10:05am 13 14 mph - 74f
9:50am 14 16 mph - 74f
9:35am 14 16 mph - 73f
9:20am 14 16 mph - 73f
9:05am 14 16 mph - 73f
8:50am 16 17 mph - 73f
8:35am 15 16 mph - 73f
8:20am 16 20 mph - 73f
8:05am 17 18 mph - 73f
7:50am 18 21 mph - 72f
7:35am 18 20 mph - 72f
7:20am 17 18 mph - 72f
7:05am 16 17 mph - 72f
6:50am 16 17 mph - 72f
6:35am 15 17 mph - 72f
6:20am 16 17 mph - 71f
6:05am 14 15 mph - 71f
5:50am 13
mph
- 71f
5:35am 13 14 mph - 71f
5:20am 14 15 mph - 71f
5:05am 14 15 mph - 71f
4:50am 14 15 mph - 72f
4:35am 13 14 mph - 72f
4:20am 11 13 mph - 72f
4:05am 14 15 mph - 72f
3:50am 3 6 mph - 72f
3:35am 6 7 mph - 72f